KFCM/FCM METAR and TAF weather

Enter ICAO airport designator
Station Type Date Time Source
KFCM METAR 2021/08/04 17:53 UTC NOAA

KFCM 041753Z 21011KT 10SM CLR 27/13 A3007 RMK AO2 SLP178 T02720128 10289 20167 58010


Station Type Date Time Source
KFCM Decoded METAR 2021/08/04 17:53 UTC NOAA

Minneapolis, Flying Cloud Airport, MN, United States (KFCM) 44-49-56N 093-28-13W 280M
Aug 04, 2021 - 01:53 PM EDT / 2021.08.04 1753 UTC
Wind: from the SSW (210 degrees) at 13 MPH (11 KT):0
Visibility: 10 mile(s):0
Sky conditions: clear
Temperature: 81.0 F (27.2 C)
Dew Point: 55.0 F (12.8 C)
Relative Humidity: 40%
Pressure (altimeter): 30.07 in. Hg (1018 hPa)
Pressure tendency: 0.03 inches (1.0 hPa) lower than three hours ago
ob: KFCM 041753Z 21011KT 10SM CLR 27/13 A3007 RMK AO2 SLP178 T02720128 10289 20167 58010
cycle: 18

Station Type Date Time Source
KFCM TAF 2018/02/05 20:59 UTC NOAA

TAF
AMD KFCM 051959Z 0520/0618 27007KT 6SM -SHSN BKN020 OVC050
TEMPO 0520/0522 SCT020 BKN050
FM052200 27007KT P6SM FEW020 BKN100
FM060100 31007KT P6SM FEW200
FM061000 VRB03KT P6SM FEW250
AMD NOT SKED

Example: see airport list